This is the latest recevied weather packets stored in our database for station/object N4CVG. If no packets are shown the sender has not sent any weather packets the latest 10 day(s).
| Time | Temp. | Humidity | Pressure | Rain* | Wind** | Luminosity | Snow |
|---|---|---|---|---|---|---|---|
| 1777446623 | 16.11° C | 93% | 1009.9 hPa | 0 mm | - | - | - |
| 1777446024 | 16.11° C | 94% | 1009.8 hPa | 0 mm | - | - | - |
| 1777443601 | 16.11° C | 96% | 1010.9 hPa | 0 mm | - | - | - |
| 1777441202 | 16.11° C | 96% | 1011.2 hPa | 0 mm | - | - | - |
| 1777438202 | 17.22° C | 94% | 1011.2 hPa | 0.51 mm | - | - | - |
| 1777432202 | 20° C | 87% | 1011.9 hPa | 0 mm | - | - | - |
| 1777428001 | 20° C | 86% | 1013.1 hPa | 0 mm | - | - | - |
| 1777426802 | 20° C | 86% | 1012.9 hPa | 0 mm | - | - | - |
| 1777423202 | 21.11° C | 83% | 1012.8 hPa | 0 mm | - | - | - |
| 1777421403 | 21.67° C | 80% | 1011.9 hPa | 0 mm | - | - | - |
| 1777419003 | 22.22° C | 78% | 1012.2 hPa | 0 mm | - | - | - |
| 1777414201 | 23.89° C | 72% | 1011.1 hPa | 0 mm | - | - | - |
| 1777412402 | 23.89° C | 73% | 1012.1 hPa | 0 mm | - | - | - |
| 1777410603 | 23.89° C | 71% | 1012.6 hPa | 0 mm | - | - | - |
| 1777404602 | 22.78° C | 78% | 1013.6 hPa | 0 mm | - | - | - |
| 1777404001 | 21.67° C | 80% | 1013.7 hPa | 0 mm | - | - | - |
| 1777396802 | 18.89° C | 95% | 1014.7 hPa | 0 mm | - | - | - |
| 1777394404 | 18.33° C | 93% | 1014.8 hPa | 0 mm | - | - | - |
| 1777393202 | 18.33° C | 93% | 1014.7 hPa | 0 mm | - | - | - |
| 1777381802 | 16.67° C | 98% | 1013.1 hPa | 0 mm | - | - | - |
| 1777381223 | 16.67° C | 98% | 1013.2 hPa | 0 mm | - | - | - |
| 1777378202 | 16.11° C | 99% | 1012.2 hPa | 0 mm | - | - | - |
| 1777374602 | 15° C | 99% | 1011.3 hPa | 0 mm | - | - | - |
| 1777372202 | 15° C | 99% | 1011.2 hPa | 0 mm | - | - | - |
| 1777371624 | 15° C | 99% | 1011.2 hPa | 0 mm | - | - | - |
* Rain latest hour (hover to see other rain measurements)
** Current wind speed in m/s (hover to see current wind gust speed)